Ana Sayfa
METAR-TAF:

METAR-TAF

Havaalanları :

Selawik, Alaska, Amerika Birleşik Devletleri

Enlem: 66-37N, Boylam: 160-00W, yükseklik: 8 m

Güncel hava durumu gözlemi

Rapor saat 05:56 UTC de 58 dakika önce yapıldı.
Rüzgar güney/güneydoğudan 6 kt
Sıcaklık 2°C
Nem 55%
Basınç 1011 hPa
Görüş mesafesi: 16.1 km
5500 ft yükseklikte parçalı bulutlu

METAR: PASK 270556Z AUTO 16006KT 10SM SCT055 02/M06 A2985 RMK AO2 SLP106 60000 T00221061 10022 20000 58001 FZRANO

Saat: 22:54 (06:54 UTC)


TAF: eksik

4.000'den fazla havaalanı için hava durumu gözlemleri ve tahminleri (METAR ve TAF raporları).

Kullanılabilir istasyonlar harita üzerinde sarı ve kırmızı noktalarla gösterilir.

İstasyonun adını görmek için fareyi noktanın üzerinde gezdirin.

Sonrasında hava gözlem ve tahminlerini görmek için tıklayın.

Haritayı değiştirmek için: yaklaştırmak için siyah artı işaretli yeşil düğmeye ve uzaklaştırmak için de eksi işaretli düğmeye hızla tıklayın; bitişik haritalar için yeşil okları kullanın.


METAR-TAF: